createdAt,value
2022-10-15T00:01:20.358Z,25.00
2022-10-15T00:03:46.869Z,24.05
2022-10-15T00:06:14.662Z,30.58
2022-10-15T00:08:41.620Z,32.05
2022-10-15T00:11:12.733Z,24.20
2022-10-15T00:13:39.529Z,24.48
2022-10-15T00:16:07.858Z,27.95
2022-10-15T00:18:34.174Z,26.55
2022-10-15T00:21:00.761Z,25.90
2022-10-15T00:23:27.270Z,25.42
2022-10-15T00:26:10.821Z,26.58
2022-10-15T00:28:37.315Z,29.20
2022-10-15T00:33:36.427Z,32.40
2022-10-15T00:36:07.704Z,27.65
2022-10-15T00:38:34.324Z,24.05
2022-10-15T00:41:01.185Z,22.50
2022-10-15T00:43:36.927Z,27.52
2022-10-15T00:46:03.526Z,27.98
2022-10-15T00:48:30.856Z,23.75
2022-10-15T00:50:58.342Z,23.85
2022-10-15T00:53:24.790Z,27.00
2022-10-15T00:55:51.270Z,25.33
2022-10-15T00:58:19.002Z,28.13
2022-10-15T01:00:45.615Z,27.55
2022-10-15T01:03:14.956Z,30.17
2022-10-15T01:05:43.558Z,28.10
2022-10-15T01:08:10.860Z,27.40
2022-10-15T01:10:44.944Z,28.85
2022-10-15T01:13:22.324Z,28.02
2022-10-15T01:15:53.247Z,31.38
2022-10-15T01:18:22.205Z,28.52
2022-10-15T01:20:54.920Z,32.47
2022-10-15T01:26:02.277Z,30.08
2022-10-15T01:28:39.883Z,31.90
2022-10-15T01:31:14.308Z,28.48
2022-10-15T01:33:46.694Z,25.45
2022-10-15T01:36:28.620Z,22.75
2022-10-15T01:38:57.804Z,22.63
2022-10-15T01:41:33.542Z,23.77
2022-10-15T01:44:02.484Z,22.02
2022-10-15T01:46:47.985Z,22.35
2022-10-15T01:49:21.409Z,31.05
2022-10-15T01:51:48.799Z,21.08
2022-10-15T01:54:17.650Z,17.70
2022-10-15T01:56:49.562Z,17.95
2022-10-15T01:59:19.993Z,19.40
2022-10-15T02:01:46.559Z,21.30
2022-10-15T02:04:20.764Z,21.05
2022-10-15T02:06:48.902Z,22.10
2022-10-15T02:09:28.338Z,20.65
2022-10-15T02:12:07.145Z,21.38
2022-10-15T02:14:40.304Z,19.45
2022-10-15T02:17:09.388Z,18.67
2022-10-15T02:19:45.851Z,20.77
2022-10-15T02:22:21.822Z,22.95
2022-10-15T02:25:09.583Z,22.98
2022-10-15T02:27:37.197Z,30.20
2022-10-15T02:30:06.591Z,24.27
2022-10-15T02:32:33.453Z,21.75
2022-10-15T02:35:00.859Z,21.83
2022-10-15T02:37:28.949Z,23.42
2022-10-15T02:39:55.510Z,25.27
2022-10-15T02:42:23.834Z,27.05
2022-10-15T02:44:50.393Z,24.27
2022-10-15T02:47:16.825Z,28.77
2022-10-15T02:49:43.369Z,23.15
2022-10-15T02:52:09.921Z,25.15
2022-10-15T02:54:36.442Z,26.73
2022-10-15T02:57:02.890Z,27.30
2022-10-15T02:59:29.303Z,23.48
2022-10-15T03:01:56.192Z,21.85
2022-10-15T03:04:23.497Z,27.90
2022-10-15T03:06:50.788Z,23.08
2022-10-15T03:09:17.967Z,24.73
2022-10-15T03:11:44.312Z,27.83
2022-10-15T03:14:10.721Z,31.00
2022-10-15T03:16:38.005Z,29.77
2022-10-15T03:19:04.636Z,26.20
2022-10-15T03:21:31.246Z,25.48
2022-10-15T03:24:05.021Z,24.08
2022-10-15T03:26:31.546Z,24.08
2022-10-15T03:28:58.320Z,23.50
2022-10-15T03:31:50.683Z,21.15
2022-10-15T03:34:17.717Z,22.85
2022-10-15T03:36:45.054Z,25.50
2022-10-15T03:39:12.760Z,24.85
2022-10-15T03:41:40.580Z,26.15
2022-10-15T03:44:07.825Z,24.88
2022-10-15T03:46:36.509Z,26.90
2022-10-15T03:49:02.912Z,23.85
2022-10-15T03:51:31.675Z,27.35
2022-10-15T03:54:04.655Z,21.77
2022-10-15T03:56:34.773Z,24.60
2022-10-15T03:59:17.930Z,24.33
2022-10-15T04:01:54.689Z,23.27
2022-10-15T04:04:21.191Z,25.77
2022-10-15T04:06:47.822Z,20.88
2022-10-15T04:09:16.149Z,21.33
2022-10-15T04:11:42.593Z,22.20
2022-10-15T04:14:09.741Z,22.00
2022-10-15T04:16:37.190Z,23.98
2022-10-15T04:19:17.949Z,23.45
2022-10-15T04:21:53.019Z,24.73
2022-10-15T04:24:30.872Z,21.42
2022-10-15T04:26:57.219Z,24.95
2022-10-15T04:29:24.661Z,23.67
2022-10-15T04:31:51.040Z,25.77
2022-10-15T04:34:17.440Z,23.63
2022-10-15T04:36:44.601Z,22.55
2022-10-15T04:39:22.510Z,26.10
2022-10-15T04:41:48.942Z,27.77
2022-10-15T04:44:27.426Z,26.70
2022-10-15T04:46:56.622Z,26.02
2022-10-15T04:49:43.765Z,28.40
2022-10-15T04:54:55.885Z,24.80
2022-10-15T04:57:22.691Z,29.88
2022-10-15T04:59:52.652Z,24.90
2022-10-15T05:02:21.743Z,27.20
2022-10-15T05:04:53.792Z,29.95
2022-10-15T05:07:20.756Z,29.05
2022-10-15T05:09:48.606Z,23.98
2022-10-15T05:12:15.133Z,27.52
2022-10-15T05:14:41.833Z,26.40
2022-10-15T05:17:15.044Z,29.30
2022-10-15T05:19:43.114Z,31.95
2022-10-15T05:22:16.845Z,27.35
2022-10-15T05:24:49.324Z,27.95
2022-10-15T05:27:26.612Z,32.53
2022-10-15T05:29:53.022Z,28.88
2022-10-15T05:34:50.872Z,33.78
2022-10-15T05:37:17.733Z,35.83
2022-10-15T05:39:44.079Z,32.67
2022-10-15T05:42:11.225Z,29.55
2022-10-15T05:44:41.342Z,31.88
2022-10-15T05:47:11.721Z,43.50
2022-10-15T05:49:39.060Z,37.28
2022-10-15T05:52:21.642Z,35.20
2022-10-15T05:55:11.822Z,41.15
2022-10-15T05:57:38.153Z,48.03
2022-10-15T06:00:06.213Z,48.63
2022-10-15T06:02:38.326Z,41.72
2022-10-15T06:05:06.382Z,45.40
2022-10-15T06:07:32.790Z,44.97
2022-10-15T06:10:03.233Z,47.53
2022-10-15T06:12:33.392Z,44.08
2022-10-15T06:14:59.762Z,49.15
2022-10-15T06:17:26.501Z,45.53
2022-10-15T06:19:53.046Z,56.33
2022-10-15T06:22:19.368Z,45.75
2022-10-15T06:24:45.697Z,42.58
2022-10-15T06:27:13.048Z,38.53
2022-10-15T06:29:39.841Z,39.78
2022-10-15T06:32:09.977Z,40.33
2022-10-15T06:34:39.143Z,38.22
2022-10-15T06:37:05.561Z,38.25
2022-10-15T06:39:31.888Z,36.88
2022-10-15T06:41:58.261Z,39.67
2022-10-15T06:44:36.720Z,39.50
2022-10-15T06:47:03.086Z,37.03
2022-10-15T06:49:29.528Z,34.50
2022-10-15T06:51:59.509Z,36.03
2022-10-15T06:54:28.808Z,33.55
2022-10-15T06:56:55.167Z,34.40
2022-10-15T06:59:21.865Z,28.27
2022-10-15T07:01:48.232Z,33.83
2022-10-15T07:04:14.635Z,29.13
2022-10-15T07:06:41.623Z,31.83
2022-10-15T07:09:08.021Z,29.95
2022-10-15T07:11:34.349Z,29.05
2022-10-15T07:14:00.674Z,30.25
2022-10-15T07:16:27.021Z,25.13
2022-10-15T07:18:53.468Z,24.77
2022-10-15T07:21:19.879Z,30.17
2022-10-15T07:23:46.189Z,24.48
2022-10-15T07:26:12.600Z,26.20
2022-10-15T07:28:39.075Z,26.65
2022-10-15T07:31:07.205Z,26.15
2022-10-15T07:33:36.637Z,27.63
2022-10-15T07:36:04.900Z,24.52
2022-10-15T07:38:31.257Z,25.63
2022-10-15T07:40:58.665Z,26.38
2022-10-15T07:43:25.885Z,22.58
2022-10-15T07:45:52.277Z,27.88
2022-10-15T07:48:18.608Z,27.75
2022-10-15T07:50:44.973Z,24.92
2022-10-15T07:53:11.486Z,23.55
2022-10-15T07:55:39.332Z,23.90
2022-10-15T07:58:08.122Z,24.25
2022-10-15T08:00:34.673Z,20.67
2022-10-15T08:03:00.980Z,22.75
2022-10-15T08:05:27.430Z,22.77
2022-10-15T08:07:54.825Z,20.42
2022-10-15T08:10:22.024Z,20.02
2022-10-15T08:12:48.483Z,21.30
2022-10-15T08:15:14.925Z,24.50
2022-10-15T08:17:41.265Z,26.27
2022-10-15T08:20:09.489Z,24.95
2022-10-15T08:22:35.854Z,21.90
2022-10-15T08:25:03.693Z,27.40
2022-10-15T08:27:30.038Z,22.58
2022-10-15T08:29:56.829Z,22.33
2022-10-15T08:32:23.436Z,22.30
2022-10-15T08:34:49.953Z,21.30
2022-10-15T08:37:16.372Z,23.48
2022-10-15T08:39:42.897Z,23.27
2022-10-15T08:42:31.756Z,20.15
2022-10-15T08:45:03.552Z,19.95
2022-10-15T08:47:39.202Z,21.88
2022-10-15T08:50:16.690Z,18.05
2022-10-15T08:52:44.624Z,20.10
2022-10-15T08:55:15.451Z,19.63
2022-10-15T08:57:58.338Z,19.25
2022-10-15T09:00:28.031Z,17.45
2022-10-15T09:03:12.400Z,17.42
2022-10-15T09:05:52.940Z,15.95
2022-10-15T09:08:25.318Z,16.00
2022-10-15T09:10:57.593Z,15.48
2022-10-15T09:13:29.808Z,17.38
2022-10-15T09:16:00.509Z,12.75
2022-10-15T09:18:34.962Z,14.38
2022-10-15T09:21:13.170Z,10.63
2022-10-15T09:23:44.364Z,11.77
2022-10-15T09:26:30.585Z,9.93
2022-10-15T09:29:06.743Z,11.73
2022-10-15T09:31:36.331Z,10.90
2022-10-15T09:34:07.230Z,10.57
2022-10-15T09:36:40.032Z,12.75
2022-10-15T09:39:06.328Z,13.05
2022-10-15T09:41:36.172Z,12.75
2022-10-15T09:44:05.693Z,10.57
2022-10-15T09:46:44.807Z,10.20
2022-10-15T09:49:19.510Z,12.13
2022-10-15T09:51:55.812Z,9.43
2022-10-15T09:54:35.558Z,10.30
2022-10-15T09:57:01.966Z,11.57
2022-10-15T09:59:28.368Z,12.55
2022-10-15T10:02:02.195Z,11.48
2022-10-15T10:04:33.646Z,12.35
2022-10-15T10:07:04.536Z,12.07
2022-10-15T10:09:49.621Z,13.63
2022-10-15T10:12:21.551Z,14.80
2022-10-15T10:14:58.532Z,14.60
2022-10-15T10:17:26.679Z,13.75
2022-10-15T10:20:11.882Z,15.63
2022-10-15T10:22:57.088Z,12.48
2022-10-15T10:25:23.441Z,16.48
2022-10-15T10:27:49.890Z,11.93
2022-10-15T10:30:16.255Z,14.70
2022-10-15T10:32:44.182Z,14.05
2022-10-15T10:35:20.604Z,11.30
2022-10-15T10:37:47.217Z,12.45
2022-10-15T10:40:23.400Z,11.02
2022-10-15T10:43:09.442Z,10.63
2022-10-15T10:45:36.038Z,12.20
2022-10-15T10:48:18.688Z,10.15
2022-10-15T10:50:45.200Z,9.32
2022-10-15T10:53:18.043Z,10.10
2022-10-15T10:55:45.417Z,9.02
2022-10-15T10:58:17.353Z,8.20
2022-10-15T11:00:45.053Z,8.35
2022-10-15T11:03:32.705Z,6.15
2022-10-15T11:06:17.623Z,5.82
2022-10-15T11:08:57.879Z,7.90
2022-10-15T11:11:44.522Z,6.10
2022-10-15T11:14:30.628Z,7.57
2022-10-15T11:17:15.599Z,5.30
2022-10-15T11:20:28.543Z,9.45
2022-10-15T11:23:03.512Z,4.80
2022-10-15T11:25:32.977Z,4.28
2022-10-15T11:28:18.279Z,5.35
2022-10-15T11:30:49.222Z,4.85
2022-10-15T11:33:25.873Z,5.75
2022-10-15T11:35:53.724Z,4.90
2022-10-15T11:38:26.513Z,5.22
2022-10-15T11:41:02.007Z,5.20
2022-10-15T11:43:37.584Z,5.57
2022-10-15T11:46:10.154Z,6.05
2022-10-15T11:51:06.769Z,5.00
2022-10-15T11:53:39.168Z,6.85
2022-10-15T11:56:10.862Z,5.18
2022-10-15T11:58:45.569Z,5.73
2022-10-15T12:01:17.996Z,4.97
2022-10-15T12:04:10.701Z,7.22
2022-10-15T12:06:40.288Z,4.55
2022-10-15T12:09:07.113Z,4.53
2022-10-15T12:11:44.129Z,3.65
2022-10-15T12:14:34.588Z,3.45
2022-10-15T12:17:19.851Z,5.10
2022-10-15T12:19:55.387Z,3.75
2022-10-15T12:22:51.256Z,3.45
2022-10-15T12:25:36.027Z,3.50
2022-10-15T12:28:04.220Z,2.53
2022-10-15T12:30:34.303Z,4.03
2022-10-15T12:33:01.360Z,3.53
2022-10-15T12:35:35.573Z,3.15
2022-10-15T12:38:31.481Z,3.67
2022-10-15T12:40:59.893Z,3.03
2022-10-15T12:43:28.025Z,2.85
2022-10-15T12:45:59.444Z,3.75
2022-10-15T12:48:32.612Z,2.65
2022-10-15T12:51:17.780Z,4.38
2022-10-15T12:53:44.502Z,4.45
2022-10-15T12:56:10.955Z,2.08
2022-10-15T12:58:43.871Z,3.53
2022-10-15T13:01:16.252Z,3.08
2022-10-15T13:03:48.517Z,2.00
2022-10-15T13:06:17.973Z,1.98
2022-10-15T13:08:46.404Z,3.80
2022-10-15T13:11:32.658Z,1.58
2022-10-15T13:14:02.538Z,2.75
2022-10-15T13:16:29.961Z,1.10
2022-10-15T13:18:57.285Z,1.33
2022-10-15T13:21:45.654Z,1.38
2022-10-15T13:24:12.180Z,1.60
2022-10-15T13:26:38.497Z,2.03
2022-10-15T13:29:04.867Z,1.45
2022-10-15T13:31:32.176Z,1.75
2022-10-15T13:34:00.338Z,2.08
2022-10-15T13:36:29.753Z,3.50
2022-10-15T13:38:58.141Z,3.33
2022-10-15T13:41:25.725Z,2.15
2022-10-15T13:43:54.773Z,3.38
2022-10-15T13:46:23.161Z,2.08
2022-10-15T13:48:49.602Z,2.40
2022-10-15T13:51:16.196Z,2.97
2022-10-15T13:53:42.707Z,2.97
2022-10-15T13:56:21.112Z,3.00
2022-10-15T13:58:47.570Z,2.55
2022-10-15T14:01:15.362Z,3.05
2022-10-15T14:03:52.230Z,2.63
2022-10-15T14:06:23.197Z,3.47
2022-10-15T14:08:50.680Z,3.60
2022-10-15T14:11:18.702Z,3.92
2022-10-15T14:13:46.164Z,3.20
2022-10-15T14:16:21.577Z,3.35
2022-10-15T14:18:59.321Z,2.03
2022-10-15T14:21:32.365Z,1.50
2022-10-15T14:24:13.734Z,2.67
2022-10-15T14:26:40.113Z,1.48
2022-10-15T14:29:07.165Z,1.75
2022-10-15T14:31:38.319Z,1.65
2022-10-15T14:34:24.927Z,1.33
2022-10-15T14:36:51.320Z,1.50
2022-10-15T14:39:26.342Z,2.58
2022-10-15T14:42:00.523Z,2.05
2022-10-15T14:44:39.697Z,2.40
2022-10-15T14:47:06.152Z,1.65
2022-10-15T14:49:33.886Z,1.98
2022-10-15T14:52:00.289Z,2.75
2022-10-15T14:54:31.620Z,1.45
2022-10-15T14:56:58.485Z,2.78
2022-10-15T14:59:28.213Z,3.03
2022-10-15T15:01:58.524Z,0.70
2022-10-15T15:04:32.177Z,2.38
2022-10-15T15:06:58.641Z,1.27
2022-10-15T15:09:25.037Z,1.58
2022-10-15T15:11:51.394Z,1.70
2022-10-15T15:14:22.140Z,0.60
2022-10-15T15:16:48.502Z,1.17
2022-10-15T15:19:14.838Z,5.53
2022-10-15T15:21:41.161Z,2.72
2022-10-15T15:24:08.885Z,1.25
2022-10-15T15:26:35.256Z,0.60
2022-10-15T15:29:01.711Z,0.50
2022-10-15T15:31:29.317Z,1.50
2022-10-15T15:33:55.669Z,2.33
2022-10-15T15:36:23.766Z,1.08
2022-10-15T15:38:50.416Z,5.28
2022-10-15T15:41:18.118Z,2.67
2022-10-15T15:43:44.607Z,3.00
2022-10-15T15:46:11.185Z,2.30
2022-10-15T15:48:37.848Z,3.42
2022-10-15T15:51:06.178Z,4.03
2022-10-15T15:53:32.719Z,3.50
2022-10-15T15:55:59.124Z,5.43
2022-10-15T15:58:25.725Z,1.75
2022-10-15T16:00:52.241Z,2.08
2022-10-15T16:03:18.598Z,3.67
2022-10-15T16:05:45.655Z,1.63
2022-10-15T16:08:12.917Z,1.13
2022-10-15T16:10:42.900Z,0.80
2022-10-15T16:13:09.592Z,1.35
2022-10-15T16:15:35.994Z,3.88
2022-10-15T16:18:02.496Z,5.18
2022-10-15T16:20:28.817Z,2.80
2022-10-15T16:22:55.267Z,1.77
2022-10-15T16:25:24.141Z,2.40
2022-10-15T16:27:56.564Z,3.45
2022-10-15T16:30:23.021Z,2.28
2022-10-15T16:32:50.862Z,4.10
2022-10-15T16:35:17.253Z,0.60
2022-10-15T16:37:43.573Z,1.10
2022-10-15T16:40:10.302Z,1.75
2022-10-15T16:42:36.681Z,1.98
2022-10-15T16:45:03.488Z,1.92
2022-10-15T16:47:30.004Z,3.83
2022-10-15T16:49:56.457Z,4.47
2022-10-15T16:52:23.199Z,4.20
2022-10-15T16:54:49.819Z,4.15
2022-10-15T16:57:16.190Z,2.60
2022-10-15T16:59:42.700Z,3.20
2022-10-15T17:02:09.724Z,4.22
2022-10-15T17:04:36.060Z,3.20
2022-10-15T17:07:02.769Z,5.53
2022-10-15T17:09:29.114Z,4.88
2022-10-15T17:11:55.516Z,3.67
2022-10-15T17:14:21.807Z,4.63
2022-10-15T17:16:49.335Z,18.85
2022-10-15T17:19:17.455Z,37.70
2022-10-15T17:21:46.977Z,59.40
2022-10-15T17:24:14.666Z,79.38
2022-10-15T17:26:42.264Z,55.83
2022-10-15T17:29:10.405Z,40.03
2022-10-15T17:31:37.061Z,61.20
2022-10-15T17:34:05.967Z,72.97
2022-10-15T17:36:35.505Z,78.93
2022-10-15T17:39:02.017Z,96.40
2022-10-15T17:41:29.489Z,70.00
2022-10-15T17:43:56.376Z,37.33
2022-10-15T17:46:25.481Z,27.15
2022-10-15T17:48:52.514Z,10.95
2022-10-15T17:51:20.728Z,7.47
2022-10-15T17:53:50.625Z,7.30
2022-10-15T17:56:18.559Z,4.38
2022-10-15T17:58:45.401Z,7.82
2022-10-15T18:01:13.215Z,9.40
2022-10-15T18:03:42.231Z,11.27
2022-10-15T18:06:12.895Z,3.63
2022-10-15T18:08:39.352Z,8.65
2022-10-15T18:11:07.216Z,7.00
2022-10-15T18:13:33.866Z,4.28
2022-10-15T18:16:00.277Z,2.95
2022-10-15T18:18:29.425Z,4.50
2022-10-15T18:20:55.759Z,9.30
2022-10-15T18:23:24.655Z,9.68
2022-10-15T18:26:01.017Z,8.73
2022-10-15T18:28:28.204Z,4.85
2022-10-15T18:30:54.637Z,7.68
2022-10-15T18:33:21.108Z,8.75
2022-10-15T18:35:47.484Z,4.55
2022-10-15T18:38:13.961Z,7.70
2022-10-15T18:40:41.321Z,5.72
2022-10-15T18:43:07.818Z,5.30
2022-10-15T18:45:35.833Z,5.57
2022-10-15T18:48:02.621Z,5.50
2022-10-15T18:50:29.125Z,4.07
2022-10-15T18:52:55.473Z,6.53
2022-10-15T18:55:22.832Z,7.97
2022-10-15T18:57:49.245Z,5.65
2022-10-15T19:00:15.898Z,7.25
2022-10-15T19:02:42.192Z,8.65
2022-10-15T19:05:08.730Z,9.95
2022-10-15T19:07:35.137Z,8.75
2022-10-15T19:10:01.781Z,8.70
2022-10-15T19:12:28.465Z,7.97
2022-10-15T19:14:55.038Z,6.25
2022-10-15T19:17:21.438Z,6.38
2022-10-15T19:19:50.121Z,5.28
2022-10-15T19:22:17.186Z,5.90
2022-10-15T19:24:43.658Z,7.90
2022-10-15T19:29:41.285Z,6.43
2022-10-15T19:32:07.897Z,10.98
2022-10-15T19:34:35.292Z,11.02
2022-10-15T19:37:02.126Z,6.80
2022-10-15T19:39:29.402Z,5.78
2022-10-15T19:41:55.833Z,9.00
2022-10-15T19:44:26.041Z,5.45
2022-10-15T19:46:52.792Z,5.80
2022-10-15T19:49:19.659Z,7.32
2022-10-15T19:51:46.720Z,5.32
2022-10-15T19:54:13.215Z,7.90
2022-10-15T19:56:39.722Z,7.53
2022-10-15T19:59:06.301Z,7.57
2022-10-15T20:01:33.121Z,8.75
2022-10-15T20:04:04.771Z,11.73
2022-10-15T20:06:33.066Z,11.52
2022-10-15T20:09:00.417Z,9.68
2022-10-15T20:11:26.800Z,9.07
2022-10-15T20:13:53.673Z,11.32
2022-10-15T20:16:22.985Z,14.13
2022-10-15T20:18:50.338Z,17.48
2022-10-15T20:21:16.995Z,15.32
2022-10-15T20:23:44.437Z,17.33
2022-10-15T20:26:11.910Z,12.10
2022-10-15T20:28:39.072Z,11.93
2022-10-15T20:31:09.858Z,11.13
2022-10-15T20:33:36.366Z,8.98
2022-10-15T20:36:03.996Z,6.82
2022-10-15T20:38:30.434Z,9.75
2022-10-15T20:40:56.806Z,7.30
2022-10-15T20:43:23.623Z,7.00
2022-10-15T20:45:50.191Z,6.35
2022-10-15T20:48:18.903Z,4.95
2022-10-15T20:50:46.270Z,5.57
2022-10-15T20:53:12.670Z,8.20
2022-10-15T20:55:39.205Z,4.85
2022-10-15T20:58:05.833Z,7.07
2022-10-15T21:00:32.374Z,5.03
2022-10-15T21:02:58.797Z,5.90
2022-10-15T21:05:25.280Z,14.30
2022-10-15T21:07:51.653Z,20.77
2022-10-15T21:10:17.975Z,16.08
2022-10-15T21:12:44.350Z,13.15
2022-10-15T21:15:10.866Z,13.35
2022-10-15T21:17:37.360Z,22.30
2022-10-15T21:20:03.881Z,20.55
2022-10-15T21:22:30.237Z,23.98
2022-10-15T21:24:56.578Z,26.67
2022-10-15T21:27:23.169Z,22.75
2022-10-15T21:29:49.742Z,19.65
2022-10-15T21:32:16.218Z,16.83
2022-10-15T21:34:42.627Z,12.30
2022-10-15T21:37:09.117Z,14.85
2022-10-15T21:39:35.526Z,12.80
2022-10-15T21:42:01.911Z,15.23
2022-10-15T21:44:28.225Z,14.90
2022-10-15T21:46:54.688Z,17.27
2022-10-15T21:49:21.040Z,14.13
2022-10-15T21:51:47.426Z,11.70
2022-10-15T21:54:13.775Z,10.77
2022-10-15T21:56:40.198Z,12.77
2022-10-15T21:59:06.779Z,7.90
2022-10-15T22:01:34.884Z,13.85
2022-10-15T22:04:02.985Z,13.48
2022-10-15T22:06:29.400Z,11.50
2022-10-15T22:08:57.653Z,7.70
2022-10-15T22:13:54.002Z,7.68
2022-10-15T22:16:20.616Z,7.93
2022-10-15T22:18:47.319Z,9.10
2022-10-15T22:21:16.416Z,6.47
2022-10-15T22:23:47.084Z,6.38
2022-10-15T22:26:14.064Z,6.18
2022-10-15T22:28:41.002Z,3.95
2022-10-15T22:31:08.235Z,5.07
2022-10-15T22:33:34.624Z,5.15
2022-10-15T22:36:04.945Z,5.80
2022-10-15T22:38:31.460Z,4.10
2022-10-15T22:40:57.989Z,4.55
2022-10-15T22:43:24.709Z,6.25
2022-10-15T22:45:51.377Z,6.38
2022-10-15T22:48:17.696Z,6.68
2022-10-15T22:50:44.161Z,7.60
2022-10-15T22:53:10.737Z,5.57
2022-10-15T22:55:37.152Z,5.30
2022-10-15T22:58:03.940Z,7.70
2022-10-15T23:00:31.203Z,6.43
2022-10-15T23:02:57.516Z,5.43
2022-10-15T23:05:24.889Z,4.15
2022-10-15T23:07:51.220Z,7.15
2022-10-15T23:10:18.608Z,6.57
2022-10-15T23:12:44.997Z,5.82
2022-10-15T23:15:11.430Z,10.18
2022-10-15T23:17:37.853Z,6.18
2022-10-15T23:20:04.436Z,6.15
2022-10-15T23:22:30.864Z,5.20
2022-10-15T23:24:57.305Z,7.30
2022-10-15T23:27:23.853Z,5.80
2022-10-15T23:29:56.975Z,6.00
2022-10-15T23:32:34.072Z,8.00
2022-10-15T23:35:00.371Z,7.97
2022-10-15T23:37:27.189Z,6.45
2022-10-15T23:39:53.908Z,5.57
2022-10-15T23:42:20.405Z,6.82
2022-10-15T23:44:46.742Z,5.40
2022-10-15T23:47:13.182Z,5.13
2022-10-15T23:49:39.522Z,8.23
2022-10-15T23:52:05.866Z,7.45
2022-10-15T23:54:32.160Z,9.32
2022-10-15T23:57:01.218Z,6.80
2022-10-15T23:59:27.837Z,6.78
